Time;durP1;ratioP1;P1;durP2;ratioP2;P2;SDS_P1;SDS_P2;PMS_P1;PMS_P2;Temp;Humidity;BMP_temperature;BMP_pressure;BME280_temperature;BME280_humidity;BME280_pressure;Samples;Min_cycle;Max_cycle;Signal;HPM_P1;HPM_P2
2023/04/25 00:00:17;;;;;;;33.80;7.13;;;7.00;99.90;;;;;;5060771;28;20030;-74
2023/04/25 00:02:43;;;;;;;38.97;7.10;;;6.90;99.90;;;;;;5063976;28;20021;-74
2023/04/25 00:05:08;;;;;;;42.08;7.22;;;6.90;99.90;;;;;;5064332;28;20103;-75
2023/04/25 00:07:35;;;;;;;43.50;7.30;;;6.80;99.90;;;;;;5062754;28;20370;-76
2023/04/25 00:10:00;;;;;;;36.88;6.40;;;6.80;99.90;;;;;;5061530;28;20040;-75
2023/04/25 00:12:28;;;;;;;39.53;6.90;;;6.80;99.90;;;;;;5062887;28;20047;-76
2023/04/25 00:14:56;;;;;;;43.75;7.60;;;6.80;99.90;;;;;;5064702;28;20059;-74
2023/04/25 00:17:24;;;;;;;43.85;7.60;;;6.80;99.90;;;;;;5062022;28;20029;-75
2023/04/25 00:19:50;;;;;;;43.38;6.95;;;6.70;99.90;;;;;;5062774;28;20180;-74
2023/04/25 00:22:16;;;;;;;37.90;6.90;;;6.70;99.90;;;;;;5063148;28;20055;-74
2023/04/25 00:24:41;;;;;;;47.85;7.80;;;6.70;99.90;;;;;;5064356;28;20017;-73
2023/04/25 00:27:07;;;;;;;45.30;7.28;;;6.70;99.90;;;;;;5063259;28;20060;-74
2023/04/25 00:29:33;;;;;;;44.65;7.60;;;6.70;99.90;;;;;;5062806;28;21396;-76
2023/04/25 00:31:59;;;;;;;48.78;7.43;;;6.70;99.90;;;;;;5064047;28;20371;-73
2023/04/25 00:34:24;;;;;;;46.38;7.05;;;6.60;99.90;;;;;;5062659;28;20043;-75
2023/04/25 00:36:50;;;;;;;45.70;7.70;;;6.60;99.90;;;;;;5062804;28;20028;-76
2023/04/25 00:39:16;;;;;;;43.00;7.30;;;6.60;99.90;;;;;;5064346;28;20065;-73
2023/04/25 00:41:41;;;;;;;48.55;7.15;;;6.50;99.90;;;;;;5062978;28;20047;-74
2023/04/25 00:44:11;;;;;;;47.50;7.50;;;6.60;99.90;;;;;;5063796;28;20074;-76
2023/04/25 00:46:39;;;;;;;39.72;7.50;;;6.60;99.90;;;;;;5062055;28;20044;-73
2023/04/25 00:49:05;;;;;;;39.72;6.95;;;6.50;99.90;;;;;;5060848;28;20036;-76
2023/04/25 00:51:32;;;;;;;44.30;7.50;;;6.50;99.90;;;;;;5062320;28;20021;-75
2023/04/25 00:53:58;;;;;;;55.38;7.45;;;6.50;99.90;;;;;;5061640;28;20040;-74
2023/04/25 00:56:24;;;;;;;32.40;6.90;;;6.50;99.90;;;;;;5062473;28;20021;-74
2023/04/25 00:58:53;;;;;;;52.92;7.95;;;6.50;99.90;;;;;;5060628;28;20562;-71
2023/04/25 01:01:19;;;;;;;57.13;7.22;;;6.50;99.90;;;;;;5061051;28;20025;-72
2023/04/25 01:03:46;;;;;;;38.45;6.88;;;6.50;99.90;;;;;;5061784;28;20035;-73
2023/04/25 01:06:12;;;;;;;50.33;7.85;;;6.40;99.90;;;;;;5060490;28;20080;-74
2023/04/25 01:08:39;;;;;;;38.45;6.90;;;6.40;99.90;;;;;;5062485;28;20045;-73
2023/04/25 01:11:05;;;;;;;39.15;7.85;;;6.40;99.90;;;;;;5062333;28;20042;-73
2023/04/25 01:13:32;;;;;;;44.47;7.10;;;6.40;99.90;;;;;;5061278;28;20033;-74
2023/04/25 01:15:59;;;;;;;44.42;7.82;;;6.40;99.90;;;;;;5064011;28;20079;-75
2023/04/25 01:18:25;;;;;;;39.15;6.35;;;6.30;99.90;;;;;;5061234;28;20032;-74
2023/04/25 01:20:51;;;;;;;39.53;7.35;;;6.30;99.90;;;;;;5062371;28;20051;-73
2023/04/25 01:23:18;;;;;;;30.00;6.57;;;6.20;99.90;;;;;;5063517;28;20021;-76
2023/04/25 01:25:45;;;;;;;41.20;6.60;;;6.20;99.90;;;;;;5063261;28;20060;-74
2023/04/25 01:28:11;;;;;;;46.50;6.38;;;6.20;99.90;;;;;;5061776;28;20029;-73
2023/04/25 01:30:38;;;;;;;40.13;7.28;;;6.20;99.90;;;;;;5061885;28;20032;-76
2023/04/25 01:33:05;;;;;;;33.17;5.50;;;6.10;99.90;;;;;;5063394;28;20700;-72
2023/04/25 01:35:31;;;;;;;30.30;5.40;;;6.10;99.90;;;;;;5063420;28;20017;-73
2023/04/25 01:37:58;;;;;;;35.22;6.18;;;6.00;99.90;;;;;;5063040;28;20101;-75
2023/04/25 01:40:24;;;;;;;26.60;5.68;;;6.00;99.90;;;;;;5061423;28;20485;-74
2023/04/25 01:42:51;;;;;;;31.92;5.82;;;5.80;99.90;;;;;;5061860;28;20025;-73
2023/04/25 01:45:17;;;;;;;35.75;6.30;;;6.00;99.90;;;;;;5062041;28;20114;-72
2023/04/25 01:47:43;;;;;;;36.67;5.85;;;5.80;99.90;;;;;;5061283;28;20027;-72
2023/04/25 01:50:11;;;;;;;33.22;6.13;;;5.80;99.90;;;;;;5062802;28;20044;-74
2023/04/25 01:52:36;;;;;;;38.22;6.47;;;5.80;99.90;;;;;;5062935;28;20049;-72
2023/04/25 01:55:03;;;;;;;41.45;5.95;;;5.70;99.90;;;;;;5062871;28;20029;-72
2023/04/25 01:57:28;;;;;;;30.27;5.45;;;5.70;99.90;;;;;;5062527;28;20514;-73
2023/04/25 02:00:00;;;;;;;41.13;6.80;;;5.50;99.90;;;;;;5062750;28;20017;-75
2023/04/25 02:02:26;;;;;;;38.50;6.68;;;5.60;99.90;;;;;;5062109;28;20054;-74
2023/04/25 02:04:52;;;;;;;41.28;6.32;;;5.70;99.90;;;;;;5062434;28;20044;-73
2023/04/25 02:07:18;;;;;;;35.25;6.28;;;5.60;99.90;;;;;;5061340;28;20048;-73
2023/04/25 02:09:43;;;;;;;42.85;6.40;;;5.60;99.90;;;;;;5062040;28;20028;-74
2023/04/25 02:12:10;;;;;;;44.45;6.25;;;5.60;99.90;;;;;;5061278;28;20021;-73
2023/04/25 02:14:36;;;;;;;37.75;6.80;;;5.50;99.90;;;;;;5061339;28;20040;-75
2023/04/25 02:17:01;;;;;;;29.42;5.85;;;5.50;99.90;;;;;;5061259;28;20025;-74
2023/04/25 02:19:27;;;;;;;43.60;6.32;;;5.60;99.90;;;;;;5062335;28;20021;-73
2023/04/25 02:21:52;;;;;;;38.08;6.30;;;5.50;99.90;;;;;;5062515;28;20055;-73
2023/04/25 02:24:18;;;;;;;44.13;6.28;;;5.70;99.90;;;;;;5060613;28;20068;-73
2023/04/25 02:26:44;;;;;;;29.30;6.18;;;5.50;99.90;;;;;;5060943;28;20043;-74
2023/04/25 02:29:10;;;;;;;33.58;6.03;;;5.40;99.90;;;;;;5060935;28;20051;-74
2023/04/25 02:31:36;;;;;;;36.47;6.57;;;5.50;99.90;;;;;;5061088;28;21527;-73
2023/04/25 02:34:02;;;;;;;30.15;5.97;;;5.60;99.90;;;;;;5060968;28;20029;-72
2023/04/25 02:36:29;;;;;;;43.05;5.95;;;5.50;99.90;;;;;;5062259;28;20049;-73
2023/04/25 02:38:55;;;;;;;34.08;6.10;;;5.50;99.90;;;;;;5062017;28;20060;-73
2023/04/25 02:41:20;;;;;;;40.17;7.07;;;5.40;99.90;;;;;;5062134;28;20067;-73
2023/04/25 02:43:46;;;;;;;27.23;6.20;;;5.40;99.90;;;;;;5062042;28;20043;-73
2023/04/25 02:46:11;;;;;;;37.75;6.38;;;5.40;99.90;;;;;;5060314;28;20049;-76
2023/04/25 02:48:37;;;;;;;32.53;6.32;;;5.40;99.90;;;;;;5060739;28;20035;-74
2023/04/25 02:51:03;;;;;;;32.92;6.25;;;5.40;99.90;;;;;;5060682;28;20028;-74
2023/04/25 02:53:29;;;;;;;28.70;6.05;;;5.40;99.90;;;;;;5060479;28;20029;-73
2023/04/25 02:55:58;;;;;;;38.63;6.25;;;5.30;99.90;;;;;;5060505;28;20039;-74
2023/04/25 02:58:23;;;;;;;38.30;6.78;;;5.40;99.90;;;;;;5061335;28;20063;-72
2023/04/25 03:00:49;;;;;;;38.97;7.32;;;5.40;99.90;;;;;;5060115;28;20525;-73
2023/04/25 03:03:17;;;;;;;36.65;6.93;;;5.50;99.90;;;;;;5061535;28;20029;-68
2023/04/25 03:05:43;;;;;;;36.28;6.57;;;5.40;99.90;;;;;;5060925;28;20021;-73
2023/04/25 03:08:09;;;;;;;34.20;6.65;;;5.40;99.90;;;;;;5060488;28;20035;-71
2023/04/25 03:10:35;;;;;;;42.28;8.05;;;5.40;99.90;;;;;;5061642;28;20114;-74
2023/04/25 03:13:00;;;;;;;30.65;6.68;;;5.30;99.90;;;;;;5061084;28;20037;-74
2023/04/25 03:15:26;;;;;;;36.58;7.25;;;5.40;99.90;;;;;;5060141;28;20047;-72
2023/04/25 03:17:51;;;;;;;46.40;7.10;;;5.30;99.90;;;;;;5059995;28;20024;-73
2023/04/25 03:20:17;;;;;;;39.90;6.70;;;5.30;99.90;;;;;;5061267;28;20048;-72
2023/04/25 03:22:43;;;;;;;31.20;5.97;;;5.20;99.90;;;;;;5060072;28;20040;-72
2023/04/25 03:25:08;;;;;;;37.60;6.80;;;5.20;99.90;;;;;;5060753;28;20020;-72
2023/04/25 03:27:34;;;;;;;35.78;6.82;;;5.20;99.90;;;;;;5061508;28;20488;-75
2023/04/25 03:29:59;;;;;;;42.70;5.75;;;5.20;99.90;;;;;;5060381;28;20032;-72
2023/04/25 03:32:25;;;;;;;33.85;5.95;;;5.30;99.90;;;;;;5059942;28;20036;-70
2023/04/25 03:34:50;;;;;;;29.42;5.63;;;5.30;99.90;;;;;;5061331;28;20025;-73
2023/04/25 03:37:16;;;;;;;36.08;5.90;;;5.20;99.90;;;;;;5064174;28;20067;-72
2023/04/25 03:39:42;;;;;;;32.80;6.00;;;5.20;99.90;;;;;;5064176;28;20025;-72
2023/04/25 03:42:07;;;;;;;28.00;5.30;;;5.10;99.90;;;;;;5063756;28;20060;-72
2023/04/25 03:44:33;;;;;;;27.83;5.20;;;5.10;99.90;;;;;;5064825;28;20025;-72
2023/04/25 03:46:58;;;;;;;36.22;5.95;;;5.10;99.90;;;;;;5064061;28;20096;-69
2023/04/25 03:49:24;;;;;;;28.55;5.38;;;5.10;99.90;;;;;;5065488;28;20040;-71
2023/04/25 03:51:50;;;;;;;33.00;6.70;;;5.10;99.90;;;;;;5063950;28;20029;-71
2023/04/25 03:54:15;;;;;;;24.70;4.47;;;5.00;99.90;;;;;;5064633;28;20547;-74
2023/04/25 03:56:41;;;;;;;38.67;5.15;;;5.10;99.90;;;;;;5063680;28;20025;-71
2023/04/25 03:59:07;;;;;;;35.70;5.30;;;5.00;99.90;;;;;;5065273;28;20067;-73
2023/04/25 04:01:33;;;;;;;36.35;4.88;;;5.00;99.90;;;;;;5065314;28;20029;-75
2023/04/25 04:03:58;;;;;;;24.17;5.00;;;5.00;99.90;;;;;;5063830;28;20040;-73
2023/04/25 04:06:25;;;;;;;28.80;5.00;;;5.00;99.90;;;;;;5065244;28;20060;-73
2023/04/25 04:08:50;;;;;;;19.77;4.15;;;4.90;99.90;;;;;;5063639;28;20029;-74
2023/04/25 04:11:16;;;;;;;36.42;5.22;;;4.90;99.90;;;;;;5063450;28;20023;-74
2023/04/25 04:13:42;;;;;;;34.45;5.15;;;4.90;99.90;;;;;;5063272;28;20033;-73
2023/04/25 04:16:07;;;;;;;28.80;4.22;;;4.90;99.90;;;;;;5063293;28;20042;-72
2023/04/25 04:18:33;;;;;;;33.78;5.07;;;4.90;99.90;;;;;;5063306;28;20416;-75
2023/04/25 04:21:02;;;;;;;28.20;4.07;;;5.00;99.90;;;;;;5065038;28;20021;-70
2023/04/25 04:23:28;;;;;;;32.80;4.70;;;5.00;99.90;;;;;;5062591;28;20043;-72
2023/04/25 04:25:54;;;;;;;30.75;4.15;;;5.00;99.90;;;;;;5063203;28;20029;-74
2023/04/25 04:28:21;;;;;;;22.13;4.07;;;5.00;99.90;;;;;;5063837;28;20025;-71
2023/04/25 04:30:47;;;;;;;26.80;4.55;;;5.10;99.90;;;;;;5064286;28;20017;-69
2023/04/25 04:33:14;;;;;;;22.83;4.13;;;5.10;99.90;;;;;;5064173;28;20047;-69
2023/04/25 04:35:41;;;;;;;15.20;3.53;;;5.10;99.90;;;;;;5064034;28;20037;-69
2023/04/25 04:38:07;;;;;;;25.27;3.78;;;5.10;99.90;;;;;;5064696;28;20017;-70
2023/04/25 04:40:32;;;;;;;21.20;3.97;;;5.10;99.90;;;;;;5064854;28;20029;-69
2023/04/25 04:42:58;;;;;;;22.60;4.38;;;5.10;99.90;;;;;;5064827;28;20030;-69
2023/04/25 04:45:24;;;;;;;25.88;4.40;;;5.10;99.90;;;;;;5064500;28;20056;-72
2023/04/25 04:47:50;;;;;;;21.20;4.00;;;5.10;99.90;;;;;;5064421;28;20029;-70
2023/04/25 04:50:16;;;;;;;25.48;4.35;;;5.30;99.90;;;;;;5063309;28;20033;-69
2023/04/25 04:52:42;;;;;;;22.50;3.90;;;5.20;99.90;;;;;;5063228;28;20166;-67
2023/04/25 04:55:08;;;;;;;26.23;4.25;;;5.20;99.90;;;;;;5063133;28;20147;-71
2023/04/25 04:57:35;;;;;;;22.60;3.88;;;5.20;99.90;;;;;;5064760;28;20056;-71
2023/04/25 05:00:04;;;;;;;29.95;4.22;;;5.20;99.90;;;;;;5064823;28;20021;-69
2023/04/25 05:02:30;;;;;;;21.33;3.85;;;5.30;99.90;;;;;;5064423;28;20110;-69
2023/04/25 05:04:56;;;;;;;23.70;4.07;;;5.30;99.90;;;;;;5063858;28;20021;-71
2023/04/25 05:07:21;;;;;;;26.65;4.00;;;5.30;99.90;;;;;;5064303;28;20024;-67
2023/04/25 05:09:47;;;;;;;15.52;3.53;;;5.40;99.90;;;;;;5064148;28;20017;-68
2023/04/25 05:12:13;;;;;;;21.23;4.13;;;5.30;99.90;;;;;;5064203;28;20104;-69
2023/04/25 05:14:38;;;;;;;23.88;4.00;;;5.30;99.90;;;;;;5064408;28;20025;-69
2023/04/25 05:17:08;;;;;;;21.20;4.00;;;5.30;99.90;;;;;;5064333;28;20025;-70
2023/04/25 05:19:34;;;;;;;22.85;4.43;;;5.30;99.90;;;;;;5063952;28;20020;-69
2023/04/25 05:21:59;;;;;;;29.75;4.50;;;5.40;99.90;;;;;;5064215;28;20559;-67
2023/04/25 05:24:25;;;;;;;21.17;4.03;;;5.40;99.90;;;;;;5058823;28;20040;-68
2023/04/25 05:26:50;;;;;;;21.58;4.20;;;5.40;99.90;;;;;;5059243;28;20044;-69
2023/04/25 05:29:16;;;;;;;22.50;3.85;;;5.40;99.90;;;;;;5061651;28;20029;-70
2023/04/25 05:31:42;;;;;;;17.00;4.07;;;5.50;99.90;;;;;;5060810;28;21046;-69
2023/04/25 05:34:07;;;;;;;17.38;3.50;;;5.50;99.90;;;;;;5060095;28;20049;-70
2023/04/25 05:36:33;;;;;;;24.08;3.90;;;5.60;99.90;;;;;;5063221;28;20033;-70
2023/04/25 05:38:58;;;;;;;20.88;3.58;;;5.60;99.90;;;;;;5062736;28;20131;-69
2023/04/25 05:41:24;;;;;;;20.23;4.10;;;5.60;99.90;;;;;;5063054;28;20037;-69
2023/04/25 05:43:50;;;;;;;21.92;3.85;;;5.60;99.90;;;;;;5059087;28;20021;-70
2023/04/25 05:46:16;;;;;;;19.80;4.18;;;5.60;99.90;;;;;;5058328;28;20056;-70
2023/04/25 05:48:43;;;;;;;23.55;4.18;;;5.60;99.90;;;;;;5061782;28;20025;-69
2023/04/25 05:51:09;;;;;;;24.92;4.28;;;5.70;99.90;;;;;;5058649;28;20105;-69
2023/04/25 05:53:34;;;;;;;28.35;3.65;;;5.50;99.90;;;;;;5059166;28;20071;-68
2023/04/25 05:56:00;;;;;;;18.85;4.20;;;5.60;99.90;;;;;;5057179;28;20025;-69
2023/04/25 05:58:26;;;;;;;24.02;4.25;;;5.60;99.90;;;;;;5051326;28;20041;-70
2023/04/25 06:00:52;;;;;;;18.02;3.75;;;5.60;99.90;;;;;;5059225;28;20088;-67
2023/04/25 06:03:17;;;;;;;23.55;4.10;;;5.60;99.90;;;;;;5060693;28;20040;-68
2023/04/25 06:05:43;;;;;;;19.48;3.75;;;5.60;99.90;;;;;;5061577;28;20080;-69
2023/04/25 06:08:09;;;;;;;20.65;4.13;;;5.50;99.90;;;;;;5061474;28;20100;-70
2023/04/25 06:10:36;;;;;;;25.33;4.00;;;5.60;99.90;;;;;;5061746;28;20021;-68
2023/04/25 06:13:04;;;;;;;29.02;3.85;;;5.70;99.90;;;;;;5062734;28;20102;-65
2023/04/25 06:15:29;;;;;;;23.95;3.80;;;5.70;99.90;;;;;;5062374;28;20041;-69
2023/04/25 06:17:55;;;;;;;23.05;4.32;;;5.80;99.90;;;;;;5062665;28;20068;-70
2023/04/25 06:20:23;;;;;;;22.02;3.95;;;5.80;99.90;;;;;;5061975;28;20045;-69
2023/04/25 06:22:49;;;;;;;18.75;3.58;;;5.90;99.90;;;;;;5061488;28;20028;-69
2023/04/25 06:25:15;;;;;;;24.10;3.83;;;5.90;99.90;;;;;;5062250;28;20025;-69
2023/04/25 06:27:40;;;;;;;16.25;3.05;;;6.00;99.90;;;;;;5062707;28;20032;-66
2023/04/25 06:30:06;;;;;;;16.75;3.42;;;6.10;99.90;;;;;;5063036;28;20033;-67
2023/04/25 06:32:34;;;;;;;22.85;3.65;;;6.10;99.90;;;;;;5062510;28;20097;-70
2023/04/25 06:35:00;;;;;;;12.50;3.03;;;6.10;99.90;;;;;;5062616;28;20021;-68
2023/04/25 06:37:26;;;;;;;23.63;3.03;;;6.10;99.90;;;;;;5062386;28;20113;-68
2023/04/25 06:39:51;;;;;;;24.70;3.40;;;6.10;99.90;;;;;;5062549;28;20021;-66
2023/04/25 06:42:17;;;;;;;18.35;3.58;;;6.10;99.90;;;;;;5061200;28;20033;-69
2023/04/25 06:44:42;;;;;;;15.43;2.97;;;6.20;99.90;;;;;;5062194;28;20033;-65
2023/04/25 06:47:08;;;;;;;15.65;3.30;;;6.00;99.90;;;;;;5062255;28;20025;-68
2023/04/25 06:49:34;;;;;;;19.75;3.10;;;5.90;99.90;;;;;;5060658;28;20501;-68
2023/04/25 06:52:00;;;;;;;14.73;2.80;;;5.90;99.90;;;;;;5061633;28;20028;-70
2023/04/25 06:54:27;;;;;;;13.30;2.53;;;5.70;99.90;;;;;;5061878;28;20706;-69
2023/04/25 06:56:53;;;;;;;12.88;2.47;;;5.90;99.90;;;;;;5062357;28;20028;-68
2023/04/25 06:59:19;;;;;;;13.80;2.25;;;5.90;99.90;;;;;;5050594;28;20024;-68
2023/04/25 07:01:44;;;;;;;10.90;2.08;;;6.00;99.90;;;;;;5057247;28;20033;-71
2023/04/25 07:04:10;;;;;;;18.33;2.50;;;6.00;99.90;;;;;;5060059;28;20028;-67
2023/04/25 07:06:37;;;;;;;18.70;2.55;;;6.10;99.90;;;;;;5059083;28;20029;-68
2023/04/25 07:09:04;;;;;;;14.82;2.78;;;6.10;99.90;;;;;;5059256;28;20075;-68
2023/04/25 07:11:30;;;;;;;19.50;3.05;;;6.20;99.90;;;;;;5058948;28;20560;-67
2023/04/25 07:13:55;;;;;;;17.23;2.63;;;6.20;99.90;;;;;;5060890;28;20033;-68
2023/04/25 07:16:21;;;;;;;14.50;2.67;;;6.30;99.90;;;;;;5060938;28;20024;-68
2023/04/25 07:18:46;;;;;;;16.17;3.30;;;6.20;99.90;;;;;;5059539;28;20033;-67
2023/04/25 07:21:12;;;;;;;13.27;2.30;;;6.30;99.90;;;;;;5058776;28;20064;-68
2023/04/25 07:23:40;;;;;;;18.90;2.78;;;6.30;99.90;;;;;;5060524;28;20091;-68
2023/04/25 07:26:06;;;;;;;18.67;2.90;;;6.30;99.90;;;;;;5061796;28;20029;-69
2023/04/25 07:28:32;;;;;;;17.33;3.17;;;6.30;99.90;;;;;;5060928;28;20032;-70
2023/04/25 07:30:58;;;;;;;16.30;3.28;;;6.30;99.90;;;;;;5061746;28;20539;-68
2023/04/25 07:33:23;;;;;;;16.83;2.70;;;6.50;99.90;;;;;;5060011;28;20628;-69
2023/04/25 07:35:49;;;;;;;19.73;3.60;;;6.40;99.90;;;;;;5060184;28;20021;-68
2023/04/25 07:38:15;;;;;;;27.48;3.30;;;6.40;99.90;;;;;;5060304;28;20029;-68
2023/04/25 07:40:41;;;;;;;20.33;3.00;;;6.50;99.90;;;;;;5061820;28;20108;-69
2023/04/25 07:43:07;;;;;;;14.88;3.00;;;6.60;99.90;;;;;;5061929;28;20029;-68
2023/04/25 07:45:32;;;;;;;22.85;3.40;;;6.80;99.90;;;;;;5059933;28;20052;-70
2023/04/25 07:47:58;;;;;;;20.77;2.75;;;6.90;99.90;;;;;;5060402;28;20033;-66
2023/04/25 07:50:23;;;;;;;13.07;3.03;;;7.00;99.90;;;;;;5061579;28;20067;-70
2023/04/25 07:52:49;;;;;;;19.67;3.03;;;7.00;99.90;;;;;;5058928;28;20108;-69
2023/04/25 07:55:15;;;;;;;17.05;2.72;;;7.10;99.90;;;;;;5060217;28;20029;-67
2023/04/25 07:57:40;;;;;;;17.20;3.22;;;7.10;99.90;;;;;;5059581;28;20036;-68
2023/04/25 08:00:09;;;;;;;18.92;2.47;;;7.10;99.90;;;;;;5056513;28;20420;-66
2023/04/25 08:02:35;;;;;;;21.10;3.20;;;6.90;99.90;;;;;;5053245;28;20037;-69
2023/04/25 08:05:00;;;;;;;16.95;2.83;;;6.80;99.90;;;;;;5059253;28;20075;-70
2023/04/25 08:07:26;;;;;;;11.18;2.35;;;6.90;99.90;;;;;;5058016;28;20036;-68
2023/04/25 08:09:52;;;;;;;24.75;2.70;;;6.90;99.90;;;;;;5060391;28;20057;-68
2023/04/25 08:12:17;;;;;;;15.43;2.85;;;6.90;99.90;;;;;;5060535;28;20029;-69
2023/04/25 08:14:43;;;;;;;16.27;2.85;;;6.90;99.90;;;;;;5060339;28;20470;-70
2023/04/25 08:17:09;;;;;;;17.00;2.78;;;7.00;99.90;;;;;;5059117;28;20025;-66
2023/04/25 08:19:35;;;;;;;15.30;2.47;;;7.20;99.90;;;;;;5060349;28;20029;-68
2023/04/25 08:22:01;;;;;;;14.52;2.70;;;7.30;99.90;;;;;;5062801;28;20024;-68
2023/04/25 08:24:26;;;;;;;16.63;2.25;;;7.40;99.90;;;;;;5064015;28;20021;-68
2023/04/25 08:26:52;;;;;;;17.10;2.67;;;7.50;99.90;;;;;;5063348;28;20047;-68
2023/04/25 08:29:17;;;;;;;18.65;2.45;;;7.60;99.90;;;;;;5064640;28;20040;-69
2023/04/25 08:31:43;;;;;;;11.02;2.33;;;7.70;99.90;;;;;;5063735;28;20025;-69
2023/04/25 08:34:09;;;;;;;13.48;2.60;;;7.80;99.90;;;;;;5063672;28;20041;-67
2023/04/25 08:36:35;;;;;;;17.48;2.33;;;7.80;99.90;;;;;;5064256;28;20497;-69
2023/04/25 08:39:00;;;;;;;11.70;2.40;;;7.80;99.90;;;;;;5060400;28;20060;-69
2023/04/25 08:41:27;;;;;;;12.43;1.75;;;7.80;99.90;;;;;;5061928;28;20093;-69
2023/04/25 08:43:55;;;;;;;12.05;2.40;;;7.90;99.90;;;;;;5063886;28;20036;-68
2023/04/25 08:46:22;;;;;;;13.52;2.13;;;8.00;99.90;;;;;;5063066;28;20029;-69
2023/04/25 08:48:50;;;;;;;23.48;2.17;;;8.00;99.90;;;;;;5062965;28;20060;-70
2023/04/25 08:51:24;;;;;;;10.00;2.10;;;8.20;99.90;;;;;;5060886;28;20029;-66
2023/04/25 08:53:51;;;;;;;9.15;1.70;;;8.40;99.90;;;;;;5063097;28;20429;-68
2023/04/25 08:56:20;;;;;;;9.70;2.28;;;8.60;99.90;;;;;;5062885;28;20147;-69
2023/04/25 08:58:48;;;;;;;9.32;1.58;;;8.70;99.90;;;;;;5063011;28;20017;-70
2023/04/25 09:01:13;;;;;;;15.50;2.55;;;8.80;99.90;;;;;;5060144;28;20038;-67
2023/04/25 09:03:40;;;;;;;10.80;1.50;;;9.00;99.90;;;;;;5061301;28;20087;-70
2023/04/25 09:06:05;;;;;;;8.82;1.92;;;9.20;99.90;;;;;;5063927;28;20024;-70
2023/04/25 09:08:31;;;;;;;18.70;2.40;;;9.40;99.90;;;;;;5062570;28;20041;-66
2023/04/25 09:10:57;;;;;;;11.45;1.63;;;9.50;99.90;;;;;;5059390;28;20397;-67
2023/04/25 09:13:27;;;;;;;14.77;2.15;;;9.40;99.90;;;;;;5063859;28;20033;-68
2023/04/25 09:15:55;;;;;;;13.65;1.60;;;9.20;99.90;;;;;;5061037;28;20112;-68
2023/04/25 09:18:28;;;;;;;10.45;1.80;;;8.90;99.90;;;;;;5060953;28;20060;-71
2023/04/25 09:20:55;;;;;;;10.80;1.80;;;8.40;99.90;;;;;;5055073;28;20544;-69
2023/04/25 09:23:23;;;;;;;8.25;1.30;;;7.90;99.90;;;;;;5062293;28;20040;-67
2023/04/25 09:25:53;;;;;;;11.07;1.80;;;7.50;99.90;;;;;;5063366;28;20025;-68
2023/04/25 09:28:27;;;;;;;9.55;1.23;;;7.20;99.90;;;;;;5061162;28;20390;-68
2023/04/25 09:30:58;;;;;;;8.70;1.45;;;7.00;99.90;;;;;;5062038;28;20474;-67
2023/04/25 09:33:32;;;;;;;12.27;1.80;;;6.80;99.90;;;;;;5061402;28;20045;-70
2023/04/25 09:36:07;;;;;;;7.47;1.83;;;6.80;99.90;;;;;;5063530;28;20071;-68
2023/04/25 09:38:43;;;;;;;9.75;1.70;;;6.90;99.90;;;;;;5061024;28;20043;-68
2023/04/25 09:41:10;;;;;;;9.02;1.63;;;6.90;99.90;;;;;;5059604;28;20116;-68
2023/04/25 09:43:37;;;;;;;6.80;2.10;;;7.10;99.90;;;;;;5061210;28;20378;-69
2023/04/25 09:46:07;;;;;;;8.73;1.52;;;7.20;99.90;;;;;;5062020;28;20054;-67
2023/04/25 09:48:33;;;;;;;4.07;0.93;;;7.30;99.90;;;;;;5061192;28;20025;-68
2023/04/25 09:51:10;;;;;;;11.20;1.70;;;7.50;99.90;;;;;;5062072;28;20080;-68
2023/04/25 09:53:37;;;;;;;11.65;1.90;;;7.90;99.90;;;;;;5059584;28;20044;-69
2023/04/25 09:56:08;;;;;;;9.23;1.95;;;8.40;99.90;;;;;;5058707;28;20085;-69
2023/04/25 09:58:37;;;;;;;12.20;1.52;;;8.60;99.90;;;;;;5060912;28;20059;-70
2023/04/25 10:01:07;;;;;;;8.77;1.60;;;8.80;99.90;;;;;;5061720;28;20037;-68
2023/04/25 10:03:39;;;;;;;8.90;1.60;;;9.10;99.90;;;;;;5062098;28;20502;-69
2023/04/25 10:06:38;;;;;;;11.48;1.60;;;9.30;99.90;;;;;;5058250;28;20032;-68
2023/04/25 10:09:07;;;;;;;13.85;2.67;;;9.50;99.90;;;;;;5057967;28;20029;-68
2023/04/25 10:11:35;;;;;;;14.40;2.78;;;9.80;99.90;;;;;;5063032;28;20103;-71
2023/04/25 10:14:01;;;;;;;7.40;1.80;;;9.80;99.90;;;;;;5062132;28;20115;-67
2023/04/25 10:16:28;;;;;;;10.45;1.83;;;9.90;99.90;;;;;;5062961;28;20490;-68
2023/04/25 10:18:54;;;;;;;9.82;1.60;;;10.20;99.90;;;;;;5059660;28;20037;-68
2023/04/25 10:21:21;;;;;;;7.97;1.67;;;10.30;99.90;;;;;;5059494;28;20025;-68
2023/04/25 10:23:48;;;;;;;15.32;2.13;;;10.10;99.90;;;;;;5058891;28;20036;-66
2023/04/25 10:26:33;;;;;;;10.98;1.88;;;10.00;99.90;;;;;;5056862;28;20676;-67
2023/04/25 10:29:01;;;;;;;16.92;2.25;;;9.90;99.90;;;;;;5057306;28;21585;-66
2023/04/25 10:31:28;;;;;;;10.75;2.10;;;9.80;99.90;;;;;;5060784;28;20037;-66
2023/04/25 10:33:54;;;;;;;17.58;2.58;;;9.70;99.90;;;;;;5061556;28;20572;-65
2023/04/25 10:36:22;;;;;;;12.18;2.22;;;9.70;99.90;;;;;;5056472;28;20021;-68
2023/04/25 10:38:52;;;;;;;10.52;1.52;;;9.80;99.90;;;;;;5060803;28;20077;-68
2023/04/25 10:41:19;;;;;;;12.90;2.00;;;9.90;99.90;;;;;;5060711;28;20028;-65
2023/04/25 10:43:46;;;;;;;10.65;2.22;;;9.90;99.90;;;;;;5057795;28;20028;-67
2023/04/25 10:46:21;;;;;;;13.05;2.17;;;10.00;99.90;;;;;;5059317;28;20096;-65
2023/04/25 10:49:01;;;;;;;19.63;6.30;;;10.00;99.90;;;;;;5056772;28;20432;-65
2023/04/25 10:51:27;;;;;;;12.25;2.30;;;9.90;99.90;;;;;;5057764;28;20028;-66
2023/04/25 10:53:56;;;;;;;9.50;2.20;;;9.90;99.90;;;;;;5054707;28;20043;-67
2023/04/25 10:56:39;;;;;;;12.45;1.83;;;9.70;99.90;;;;;;5059402;28;20079;-65
2023/04/25 10:59:09;;;;;;;7.45;1.50;;;9.30;99.90;;;;;;5059654;28;20054;-67
2023/04/25 11:01:51;;;;;;;7.72;1.73;;;9.00;99.90;;;;;;5059491;28;20032;-67
2023/04/25 11:04:23;;;;;;;8.63;1.83;;;8.70;99.90;;;;;;5058854;28;20478;-67
2023/04/25 11:06:57;;;;;;;8.05;1.65;;;8.70;99.90;;;;;;5059965;28;20393;-68
2023/04/25 11:09:23;;;;;;;;;;;8.90;99.90;;;;;;5060300;28;20037;-68
2023/04/25 11:11:56;;;;;;;8.70;1.95;;;9.00;99.90;;;;;;5059991;28;20004;-67
2023/04/25 11:14:22;;;;;;;20.05;1.70;;;9.30;99.90;;;;;;5059584;28;20037;-67
2023/04/25 11:16:54;;;;;;;9.70;1.77;;;9.40;99.90;;;;;;5059770;28;20044;-67
2023/04/25 11:19:20;;;;;;;10.52;1.70;;;9.50;99.90;;;;;;5058639;28;20124;-69
2023/04/25 11:21:46;;;;;;;10.77;1.80;;;9.60;99.90;;;;;;5060072;28;20090;-68
2023/04/25 11:24:11;;;;;;;8.38;1.55;;;9.90;99.90;;;;;;5058566;28;20556;-68
2023/04/25 11:26:47;;;;;;;10.63;1.92;;;10.00;99.90;;;;;;5060836;28;20045;-67
2023/04/25 11:29:13;;;;;;;10.40;1.88;;;10.00;99.90;;;;;;5059759;28;20017;-67
2023/04/25 11:31:38;;;;;;;8.93;1.75;;;9.90;99.90;;;;;;5055841;28;20021;-67
2023/04/25 11:34:04;;;;;;;12.70;1.92;;;9.80;99.90;;;;;;5059876;28;20474;-70
2023/04/25 11:36:30;;;;;;;7.53;1.60;;;9.70;99.90;;;;;;5059269;28;20063;-69
2023/04/25 11:38:56;;;;;;;12.00;2.05;;;9.80;99.90;;;;;;5059252;28;20041;-69
2023/04/25 11:41:22;;;;;;;10.05;1.48;;;10.10;99.90;;;;;;5058553;28;20029;-68
2023/04/25 11:43:48;;;;;;;13.90;1.65;;;10.50;99.90;;;;;;5058972;28;20021;-67
2023/04/25 11:46:15;;;;;;;11.10;1.95;;;11.00;99.90;;;;;;5058633;28;20049;-70
2023/04/25 11:48:41;;;;;;;8.13;1.42;;;11.30;99.90;;;;;;5059029;28;20539;-69
2023/04/25 11:51:08;;;;;;;13.50;1.88;;;11.00;99.90;;;;;;5058248;28;21192;-70
2023/04/25 11:53:36;;;;;;;11.43;1.92;;;11.00;99.90;;;;;;5060470;28;20037;-68
2023/04/25 11:56:10;;;;;;;9.43;1.67;;;11.20;99.90;;;;;;5060099;28;20021;-68
2023/04/25 11:58:55;;;;;;;13.73;1.50;;;10.80;99.90;;;;;;5063990;28;20122;-71
2023/04/25 12:01:33;;;;;;;11.55;1.50;;;10.00;99.90;;;;;;5062961;28;20079;-70
2023/04/25 12:04:10;;;;;;;3.85;1.40;;;9.40;99.90;;;;;;5063614;28;20029;-69
2023/04/25 12:06:40;;;;;;;7.72;1.45;;;9.10;99.90;;;;;;5061254;28;20136;-69
2023/04/25 12:09:15;;;;;;;9.32;1.00;;;8.90;99.90;;;;;;5061344;28;20057;-70
2023/04/25 12:11:43;;;;;;;7.38;1.50;;;8.90;99.90;;;;;;5062957;28;20052;-71
2023/04/25 12:14:10;;;;;;;6.80;1.30;;;8.90;99.90;;;;;;5064216;28;20140;-69
2023/04/25 12:16:44;;;;;;;4.78;1.13;;;9.00;99.90;;;;;;5064153;28;20028;-68
2023/04/25 12:19:14;;;;;;;7.80;1.67;;;9.00;99.90;;;;;;5064014;28;20088;-70
2023/04/25 12:21:40;;;;;;;12.18;1.60;;;9.10;99.90;;;;;;5063787;28;20037;-70
2023/04/25 12:24:16;;;;;;;7.13;1.58;;;9.30;99.90;;;;;;5062670;28;20017;-72
2023/04/25 12:26:49;;;;;;;10.45;1.92;;;9.40;99.90;;;;;;5063872;28;20089;-70
2023/04/25 12:29:17;;;;;;;13.00;1.67;;;9.60;99.90;;;;;;5063861;28;20571;-68
2023/04/25 12:31:42;;;;;;;11.15;1.70;;;9.60;99.90;;;;;;5062180;28;20067;-68
2023/04/25 12:34:08;;;;;;;9.88;2.25;;;9.70;99.90;;;;;;5061923;28;20049;-69
2023/04/25 12:36:34;;;;;;;13.25;3.60;;;9.90;99.90;;;;;;5063304;28;20029;-70
2023/04/25 12:39:03;;;;;;;14.98;3.63;;;10.40;99.90;;;;;;5063733;28;20025;-69
2023/04/25 12:41:29;;;;;;;11.27;2.30;;;10.90;99.90;;;;;;5063369;28;20549;-70
2023/04/25 12:43:55;;;;;;;11.80;2.33;;;11.30;99.90;;;;;;5061235;28;20044;-68
2023/04/25 12:46:22;;;;;;;14.82;1.88;;;11.20;99.90;;;;;;5061837;28;20053;-71